Time;durP1;ratioP1;P1;durP2;ratioP2;P2;SDS_P1;SDS_P2;PMS_P1;PMS_P2;Temp;Humidity;BMP_temperature;BMP_pressure;BME280_temperature;BME280_humidity;BME280_pressure;Samples;Min_cycle;Max_cycle;Signal;HPM_P1;HPM_P2
2024/01/22 00:00:25;;;;;;;67.22;26.65;;;;;;;-4.60;78.44;96965.81;5075026;28;20048;-80
2024/01/22 00:02:51;;;;;;;73.63;26.77;;;;;;;-5.21;78.59;96866.91;5092993;28;20044;-81
2024/01/22 00:05:16;;;;;;;74.53;27.77;;;;;;;-5.43;78.56;96807.69;5075206;28;20120;-82
2024/01/22 00:07:42;;;;;;;70.63;26.83;;;;;;;-5.65;78.46;96768.22;5077980;28;20074;-81
2024/01/22 00:10:08;;;;;;;65.07;24.45;;;;;;;-4.32;78.43;96966.75;5075464;28;20048;-81
2024/01/22 00:12:35;;;;;;;63.90;27.10;;;;;;;-4.76;78.45;96900.84;5074479;28;20496;-81
2024/01/22 00:15:01;;;;;;;104.63;39.10;;;;;;;-4.74;77.35;96917.88;5093702;28;20109;-81
2024/01/22 00:17:26;;;;;;;108.47;37.95;;;;;;;-4.33;77.50;96984.06;5073610;28;20516;-85
2024/01/22 00:19:52;;;;;;;101.65;36.47;;;;;;;-4.55;77.36;96958.47;5073217;28;20048;-83
2024/01/22 00:22:17;;;;;;;90.68;33.22;;;;;;;-4.65;77.83;96957.63;5073069;28;20188;-84
2024/01/22 00:24:43;;;;;;;89.47;35.35;;;;;;;-4.60;77.67;96986.53;5073134;28;20064;-84
2024/01/22 00:27:08;;;;;;;92.53;36.38;;;;;;;-5.23;77.58;96864.47;5073295;28;20094;-83
2024/01/22 00:29:34;;;;;;;95.57;36.75;;;;;;;-5.06;77.55;96888.84;5091513;28;20040;-83
2024/01/22 00:31:59;;;;;;;103.85;39.40;;;;;;;-4.62;77.51;96938.44;5073391;28;20044;-83
2024/01/22 00:34:25;;;;;;;109.20;39.58;;;;;;;-4.48;77.73;96980.25;5074504;28;20039;-81
2024/01/22 00:36:50;;;;;;;108.05;39.22;;;;;;;-4.71;77.49;96951.22;5095344;28;20047;-81
2024/01/22 00:39:16;;;;;;;116.47;39.72;;;;;;;-4.43;77.59;96987.63;5075245;28;20040;-81
2024/01/22 00:41:41;;;;;;;105.25;37.13;;;;;;;-5.08;76.86;96901.09;5074557;28;20046;-80
2024/01/22 00:44:07;;;;;;;110.80;37.75;;;;;;;-4.49;76.69;96985.56;5092647;28;20059;-81
2024/01/22 00:46:32;;;;;;;120.70;40.40;;;;;;;-4.64;76.89;96954.09;5073711;28;20048;-82
2024/01/22 00:48:58;;;;;;;118.00;40.30;;;;;;;-4.51;76.76;96985.72;5074252;28;20044;-82
2024/01/22 00:51:23;;;;;;;108.25;38.35;;;;;;;-4.82;77.00;96909.16;5092526;28;20047;-81
2024/01/22 00:53:49;;;;;;;116.32;40.97;;;;;;;-4.60;76.54;96926.16;5073452;28;20374;-83
2024/01/22 00:56:14;;;;;;;113.53;42.40;;;;;;;-4.24;76.45;96969.47;5090313;28;20046;-84
2024/01/22 00:58:40;;;;;;;124.05;42.78;;;;;;;-4.63;75.95;96919.50;5086608;28;20039;-84
2024/01/22 01:01:08;;;;;;;137.93;45.22;;;;;;;-4.37;76.25;96941.28;5091168;28;20166;-83
2024/01/22 01:03:33;;;;;;;95.65;31.83;;;;;;;-4.73;75.76;96916.09;5072039;28;20437;-83
2024/01/22 01:05:59;;;;;;;91.38;31.33;;;;;;;-4.46;76.96;96964.59;5072337;28;20051;-83
2024/01/22 01:08:24;;;;;;;107.78;38.08;;;;;;;-4.48;76.97;96967.31;5072497;28;20040;-83
2024/01/22 01:10:50;;;;;;;127.63;43.88;;;;;;;-5.01;76.97;96878.06;5072389;28;20494;-83
2024/01/22 01:13:15;;;;;;;156.98;51.80;;;;;;;-4.27;76.51;96974.94;5090476;28;20036;-83
2024/01/22 01:15:41;;;;;;;157.80;51.10;;;;;;;-4.22;76.16;96967.59;5072327;28;20070;-83
2024/01/22 01:18:06;;;;;;;143.93;51.42;;;;;;;-4.22;76.13;96966.75;5090802;28;20490;-83
2024/01/22 01:20:33;;;;;;;127.75;45.90;;;;;;;-4.80;75.91;96882.16;5091170;28;20050;-83
2024/01/22 01:22:59;;;;;;;142.10;49.72;;;;;;;-4.20;76.05;96962.28;5072452;28;20055;-83
2024/01/22 01:25:25;;;;;;;153.45;48.03;;;;;;;-4.44;75.34;96936.78;5090948;28;20066;-83
2024/01/22 01:27:51;;;;;;;125.38;48.00;;;;;;;-4.35;75.65;96931.59;5072440;28;20091;-83
2024/01/22 01:30:16;;;;;;;131.77;47.72;;;;;;;-5.10;75.13;96802.09;5091211;28;20052;-83
2024/01/22 01:32:42;;;;;;;124.22;44.53;;;;;;;-4.30;75.30;96936.38;5074518;28;20111;-83
2024/01/22 01:35:08;;;;;;;125.60;43.83;;;;;;;-4.22;74.48;96962.41;5093685;28;20039;-83
2024/01/22 01:37:33;;;;;;;117.07;42.38;;;;;;;-4.39;75.03;96930.25;5093078;28;20092;-83
2024/01/22 01:39:59;;;;;;;110.93;39.08;;;;;;;-4.19;75.33;96948.34;5074305;28;20108;-83
2024/01/22 01:42:25;;;;;;;107.93;40.35;;;;;;;-4.43;75.24;96939.25;5073930;28;20036;-83
2024/01/22 01:44:52;;;;;;;102.80;38.92;;;;;;;-4.69;75.96;96878.63;5074772;28;20055;-81
2024/01/22 01:47:18;;;;;;;110.38;39.55;;;;;;;-4.65;75.55;96889.53;5074254;28;20044;-81
2024/01/22 01:49:46;;;;;;;103.55;39.47;;;;;;;-4.37;75.88;96925.75;5091774;28;20074;-81
2024/01/22 01:52:13;;;;;;;102.45;36.67;;;;;;;-4.15;76.06;96954.88;5093089;28;20032;-81
2024/01/22 01:54:42;;;;;;;103.53;34.90;;;;;;;-4.12;75.78;96946.84;5074126;28;20093;-80
2024/01/22 01:57:08;;;;;;;100.55;34.67;;;;;;;-4.15;75.69;96947.94;5074354;28;20113;-81
2024/01/22 01:59:39;;;;;;;95.28;31.60;;;;;;;-4.60;75.84;96870.03;5073726;28;20562;-81
2024/01/22 02:02:05;;;;;;;83.03;31.90;;;;;;;-4.25;75.32;96952.31;5074169;28;20564;-81
2024/01/22 02:04:31;;;;;;;89.00;31.20;;;;;;;-4.53;75.76;96896.19;5074144;28;20047;-81
2024/01/22 02:06:57;;;;;;;85.60;30.75;;;;;;;-4.27;75.60;96947.25;5074820;28;20334;-81
2024/01/22 02:09:22;;;;;;;86.07;30.08;;;;;;;-4.89;75.77;96856.31;5074321;28;20040;-82
2024/01/22 02:11:48;;;;;;;88.90;31.33;;;;;;;-4.36;75.76;96929.97;5093050;28;20044;-81
2024/01/22 02:14:13;;;;;;;89.18;33.25;;;;;;;-4.30;75.33;96932.00;5092612;28;20141;-81
2024/01/22 02:16:39;;;;;;;85.57;32.83;;;;;;;-4.33;75.42;96918.50;5095597;28;20051;-80
2024/01/22 02:19:04;;;;;;;79.35;31.58;;;;;;;-4.92;75.81;96839.28;5077967;28;20040;-81
2024/01/22 02:21:30;;;;;;;87.55;32.47;;;;;;;-4.19;75.27;96949.16;5078128;28;20179;-82
2024/01/22 02:23:55;;;;;;;85.72;31.65;;;;;;;-4.39;74.97;96921.66;5077935;28;20555;-81
2024/01/22 02:26:21;;;;;;;94.93;32.78;;;;;;;-5.06;74.93;96826.75;5063683;28;20036;-82
2024/01/22 02:28:46;;;;;;;84.45;31.13;;;;;;;-4.83;75.06;96842.81;5092093;28;20043;-81
2024/01/22 02:31:12;;;;;;;81.38;30.30;;;;;;;-4.69;75.30;96860.50;5096181;28;20044;-81
2024/01/22 02:33:37;;;;;;;86.32;31.50;;;;;;;-4.58;73.98;96894.03;5077638;28;20123;-81
2024/01/22 02:36:04;;;;;;;82.35;29.80;;;;;;;-4.52;75.04;96903.00;5077852;28;20488;-81
2024/01/22 02:38:29;;;;;;;85.18;30.42;;;;;;;-5.06;75.05;96808.66;5076940;28;20039;-81
2024/01/22 02:40:55;;;;;;;89.57;32.85;;;;;;;-4.39;75.43;96912.09;5077911;28;20036;-81
2024/01/22 02:43:20;;;;;;;80.80;28.90;;;;;;;-4.19;74.81;96935.38;5077961;28;20032;-81
2024/01/22 02:45:47;;;;;;;83.03;32.58;;;;;;;-5.28;74.47;96789.06;5095911;28;20453;-81
2024/01/22 02:48:12;;;;;;;88.97;31.70;;;;;;;-4.35;74.87;96935.97;5078249;28;20609;-81
2024/01/22 02:50:38;;;;;;;81.88;30.88;;;;;;;-4.26;75.65;96935.13;5077734;28;20040;-81
2024/01/22 02:53:04;;;;;;;73.88;27.30;;;;;;;-4.43;75.75;96907.34;5077666;28;20036;-81
2024/01/22 02:55:29;;;;;;;78.25;29.67;;;;;;;-4.27;75.38;96933.47;5075989;28;20547;-83
2024/01/22 02:57:55;;;;;;;62.97;26.42;;;;;;;-4.69;75.84;96863.09;5075406;28;20052;-83
2024/01/22 03:00:20;;;;;;;71.18;26.52;;;;;;;-4.25;75.41;96931.56;5093550;28;20159;-83
2024/01/22 03:02:46;;;;;;;69.60;27.05;;;;;;;-4.54;75.32;96884.19;5093393;28;20110;-83
2024/01/22 03:05:11;;;;;;;59.22;23.77;;;;;;;-4.53;75.02;96880.66;5094979;28;20072;-81
2024/01/22 03:07:37;;;;;;;58.88;24.13;;;;;;;-4.40;74.48;96896.69;5076764;28;20051;-80
2024/01/22 03:10:02;;;;;;;57.72;21.85;;;;;;;-4.74;74.18;96854.94;5076847;28;20117;-80
2024/01/22 03:12:28;;;;;;;58.22;22.33;;;;;;;-4.21;74.05;96943.31;5094501;28;20123;-80
2024/01/22 03:14:53;;;;;;;60.13;23.75;;;;;;;-4.27;73.92;96936.06;5094325;28;20153;-80
2024/01/22 03:17:19;;;;;;;59.63;23.65;;;;;;;-4.28;73.30;96950.00;5094644;28;20040;-80
2024/01/22 03:19:44;;;;;;;54.35;20.67;;;;;;;-5.13;74.11;96839.41;5094348;28;20036;-80
2024/01/22 03:22:10;;;;;;;61.22;21.10;;;;;;;-4.88;73.00;96907.91;5076314;28;20088;-80
2024/01/22 03:24:36;;;;;;;59.17;21.30;;;;;;;-5.28;74.31;96889.91;5075823;28;20501;-81
2024/01/22 03:27:02;;;;;;;57.47;20.52;;;;;;;-5.20;75.16;96886.66;5076332;28;20042;-80
2024/01/22 03:29:27;;;;;;;62.53;23.25;;;;;;;-5.27;74.82;96865.69;5095041;28;20060;-80
2024/01/22 03:31:53;;;;;;;63.50;24.08;;;;;;;-5.13;74.95;96893.75;5076192;28;20042;-80
2024/01/22 03:34:19;;;;;;;60.95;24.15;;;;;;;-4.64;75.21;96948.91;5076001;28;20032;-83
2024/01/22 03:36:44;;;;;;;61.95;22.67;;;;;;;-5.45;75.17;96824.16;5093515;28;20044;-83
2024/01/22 03:39:10;;;;;;;62.65;24.23;;;;;;;-5.08;76.29;96895.91;5074662;28;20514;-83
2024/01/22 03:41:35;;;;;;;67.75;24.35;;;;;;;-4.79;76.47;96929.56;5074981;28;20079;-83
2024/01/22 03:44:02;;;;;;;61.10;23.35;;;;;;;-5.08;76.17;96894.16;5075163;28;20044;-83
2024/01/22 03:46:28;;;;;;;64.60;24.15;;;;;;;-4.59;76.40;96953.69;5075190;28;20078;-83
2024/01/22 03:48:53;;;;;;;63.60;25.60;;;;;;;-5.03;76.58;96873.03;5075360;28;20052;-84
2024/01/22 03:51:19;;;;;;;65.65;25.05;;;;;;;-4.48;76.28;96948.38;5074619;28;20496;-82
2024/01/22 03:53:44;;;;;;;66.95;26.13;;;;;;;-4.65;76.16;96913.63;5093724;28;20082;-83
2024/01/22 03:56:10;;;;;;;68.28;25.77;;;;;;;-4.54;76.33;96944.56;5074777;28;20040;-83
2024/01/22 03:58:35;;;;;;;63.45;25.27;;;;;;;-4.63;76.54;96929.03;5092351;28;20044;-83
2024/01/22 04:01:02;;;;;;;63.55;25.02;;;;;;;-4.42;76.84;96950.41;5092552;28;20036;-83
2024/01/22 04:03:27;;;;;;;76.63;25.25;;;;;;;-4.39;76.40;96955.31;5074884;28;20136;-83
2024/01/22 04:05:53;;;;;;;75.68;28.98;;;;;;;-4.55;76.31;96922.22;5074825;28;20101;-83
2024/01/22 04:08:19;;;;;;;69.03;25.08;;;;;;;-4.47;76.22;96950.81;5075063;28;20051;-83
2024/01/22 04:10:44;;;;;;;70.88;27.00;;;;;;;-4.50;76.73;96953.69;5074256;28;20488;-83
2024/01/22 04:13:10;;;;;;;74.82;26.50;;;;;;;-5.06;76.42;96884.50;5074136;28;20066;-83
2024/01/22 04:15:35;;;;;;;83.32;27.88;;;;;;;-4.59;76.98;96946.75;5073978;28;20144;-82
2024/01/22 04:18:01;;;;;;;87.40;28.83;;;;;;;-4.63;76.39;96926.44;5092006;28;20044;-82
2024/01/22 04:20:26;;;;;;;84.13;28.85;;;;;;;-4.47;76.38;96955.19;5093287;28;20040;-83
2024/01/22 04:22:52;;;;;;;87.97;31.45;;;;;;;-4.53;76.92;96941.03;5092339;28;20470;-82
2024/01/22 04:25:18;;;;;;;79.25;30.13;;;;;;;-4.70;76.94;96906.28;5074100;28;20246;-82
2024/01/22 04:27:44;;;;;;;77.10;29.33;;;;;;;-4.79;76.67;96899.31;5074313;28;20051;-82
2024/01/22 04:30:10;;;;;;;79.45;28.05;;;;;;;-4.38;77.00;96949.19;5073737;28;20500;-82
2024/01/22 04:32:35;;;;;;;77.35;28.60;;;;;;;-5.10;77.01;96840.91;5092512;28;20127;-82
2024/01/22 04:35:01;;;;;;;83.53;29.08;;;;;;;-4.41;76.12;96947.69;5093363;28;20508;-80
2024/01/22 04:37:27;;;;;;;74.88;27.23;;;;;;;-4.60;76.40;96918.41;5094183;28;20036;-80
2024/01/22 04:39:53;;;;;;;76.63;25.70;;;;;;;-4.71;76.05;96891.69;5093632;28;20123;-80
2024/01/22 04:42:20;;;;;;;53.47;22.00;;;;;;;-4.94;75.20;96887.75;5094546;28;20058;-81
2024/01/22 04:44:46;;;;;;;62.40;22.90;;;;;;;-4.80;76.25;96917.56;5094350;28;20074;-82
2024/01/22 04:47:12;;;;;;;62.67;22.27;;;;;;;-4.59;76.10;96943.34;5077717;28;20051;-81
2024/01/22 04:49:38;;;;;;;63.38;22.85;;;;;;;-4.99;76.20;96897.69;5094336;28;20052;-81
2024/01/22 04:52:04;;;;;;;61.13;22.90;;;;;;;-4.77;75.58;96935.44;5095181;28;20043;-81
2024/01/22 04:54:29;;;;;;;61.70;21.05;;;;;;;-4.95;75.85;96901.63;5095535;28;20111;-82
2024/01/22 04:56:54;;;;;;;61.97;22.45;;;;;;;-5.62;75.80;96793.78;5076527;28;20077;-81
2024/01/22 04:59:20;;;;;;;63.15;21.17;;;;;;;-4.52;75.54;96957.38;5076586;28;20488;-81
2024/01/22 05:01:46;;;;;;;51.42;18.88;;;;;;;-4.76;74.80;96932.72;5077069;28;20047;-81
2024/01/22 05:04:12;;;;;;;49.65;19.13;;;;;;;-4.91;74.42;96936.66;5076148;28;20070;-81
2024/01/22 05:06:38;;;;;;;57.40;20.77;;;;;;;-4.86;74.04;96949.19;5095174;28;20492;-81
2024/01/22 05:09:07;;;;;;;47.83;19.23;;;;;;;-4.89;74.71;96915.81;5095632;28;20048;-82
2024/01/22 05:11:33;;;;;;;47.08;20.33;;;;;;;-5.27;74.53;96891.56;5095069;28;20127;-82
2024/01/22 05:13:58;;;;;;;56.45;21.17;;;;;;;-4.87;75.20;96948.34;5094828;28;20079;-82
2024/01/22 05:16:24;;;;;;;48.58;19.05;;;;;;;-4.77;74.43;96956.97;5076248;28;20053;-82
2024/01/22 05:18:51;;;;;;;54.80;19.85;;;;;;;-4.69;74.73;96964.88;5072651;28;20036;-82
2024/01/22 05:21:17;;;;;;;52.42;19.80;;;;;;;-4.83;75.27;96967.84;5092521;28;20046;-82
2024/01/22 05:23:43;;;;;;;55.80;19.48;;;;;;;-5.15;74.88;96921.50;5077354;28;20609;-82
2024/01/22 05:26:09;;;;;;;57.08;19.77;;;;;;;-4.85;75.50;96966.34;5079909;28;20052;-82
2024/01/22 05:28:37;;;;;;;47.60;17.95;;;;;;;-5.72;75.24;96852.38;5072598;28;20052;-82
2024/01/22 05:31:04;;;;;;;45.15;18.10;;;;;;;-4.89;75.83;96980.53;5064161;28;20909;-83
2024/01/22 05:33:30;;;;;;;53.92;19.77;;;;;;;-5.44;75.16;96892.19;5069456;28;20040;-82
2024/01/22 05:35:55;;;;;;;60.13;21.55;;;;;;;-5.48;76.06;96898.56;5067737;28;20089;-82
2024/01/22 05:38:23;;;;;;;52.03;20.90;;;;;;;-4.97;76.47;96963.06;5082045;28;21504;-82
2024/01/22 05:40:49;;;;;;;50.05;19.70;;;;;;;-5.06;75.88;96967.28;5067305;28;20052;-82
2024/01/22 05:43:14;;;;;;;49.10;18.00;;;;;;;-5.13;76.01;96970.53;5065007;28;20153;-82
2024/01/22 05:45:40;;;;;;;51.42;19.50;;;;;;;-5.73;76.58;96875.78;5055963;28;20123;-82
2024/01/22 05:48:06;;;;;;;53.33;19.17;;;;;;;-5.13;76.02;96975.69;5071745;28;20708;-83
2024/01/22 05:50:36;;;;;;;51.50;20.08;;;;;;;-5.53;76.37;96892.97;5041236;28;20657;-83
2024/01/22 05:53:01;;;;;;;56.20;19.48;;;;;;;-5.22;75.45;96956.63;5067740;28;20044;-83
2024/01/22 05:55:28;;;;;;;48.22;17.38;;;;;;;-6.44;74.73;96780.28;5072934;28;20350;-82
2024/01/22 05:57:54;;;;;;;46.95;19.45;;;;;;;-5.68;76.31;96910.63;5052792;28;20583;-82
2024/01/22 06:00:20;;;;;;;51.08;18.52;;;;;;;-5.49;75.63;96954.63;5068798;28;20044;-83
2024/01/22 06:02:45;;;;;;;49.05;19.02;;;;;;;-5.30;76.57;96976.34;5071100;28;20593;-82
2024/01/22 06:05:12;;;;;;;61.78;18.10;;;;;;;-5.27;75.84;96970.91;5069740;28;20135;-82
2024/01/22 06:07:38;;;;;;;56.85;18.17;;;;;;;-7.07;75.00;96683.28;5083776;28;20036;-82
2024/01/22 06:10:06;;;;;;;46.05;16.88;;;;;;;-5.49;74.19;96962.38;5067766;28;20040;-82
2024/01/22 06:12:32;;;;;;;48.20;18.25;;;;;;;-5.22;74.26;96979.06;5086160;28;20051;-83
2024/01/22 06:14:58;;;;;;;48.78;18.00;;;;;;;-5.34;74.20;96964.63;5069011;28;20044;-82
2024/01/22 06:17:24;;;;;;;52.72;18.48;;;;;;;-6.26;73.69;96838.09;5067614;28;20091;-83
2024/01/22 06:19:49;;;;;;;49.72;18.90;;;;;;;-5.35;73.25;96960.41;5071349;28;20040;-84
2024/01/22 06:22:18;;;;;;;49.38;18.30;;;;;;;-6.32;73.60;96851.50;5056415;28;20044;-83
2024/01/22 06:24:44;;;;;;;63.10;20.55;;;;;;;-5.48;75.35;96986.47;5063759;28;20031;-83
2024/01/22 06:27:10;;;;;;;53.75;20.08;;;;;;;-6.18;75.59;96877.97;5057188;28;20047;-83
2024/01/22 06:29:35;;;;;;;59.22;18.67;;;;;;;-5.84;75.77;96959.38;5081832;28;20050;-83
2024/01/22 06:32:02;;;;;;;58.65;19.80;;;;;;;-6.59;76.31;96827.19;5081204;28;20091;-82
2024/01/22 06:34:27;;;;;;;65.00;22.23;;;;;;;-6.00;75.77;96917.72;5062883;28;20063;-83
2024/01/22 06:36:53;;;;;;;66.22;22.25;;;;;;;-6.19;76.28;96881.47;5085090;28;20389;-83
2024/01/22 06:39:18;;;;;;;62.30;21.67;;;;;;;-5.57;77.24;97000.19;5070339;28;20044;-83
2024/01/22 06:41:44;;;;;;;75.20;22.92;;;;;;;-6.76;76.81;96813.91;5089590;28;20152;-84
2024/01/22 06:44:09;;;;;;;74.07;23.90;;;;;;;-6.00;77.31;96910.78;5069567;28;20050;-82
2024/01/22 06:46:35;;;;;;;91.07;25.58;;;;;;;-5.87;77.80;96926.84;5066923;28;20047;-83
2024/01/22 06:49:00;;;;;;;80.38;26.45;;;;;;;-6.48;77.28;96812.44;5062507;28;20071;-82
2024/01/22 06:51:28;;;;;;;73.90;26.23;;;;;;;-5.41;77.56;96982.41;5065323;28;20052;-82
2024/01/22 06:53:53;;;;;;;87.75;26.80;;;;;;;-5.73;78.14;96904.22;5063603;28;20120;-83
2024/01/22 06:56:19;;;;;;;73.70;25.27;;;;;;;-5.34;77.52;96968.00;5067689;28;20044;-82
2024/01/22 06:58:45;;;;;;;77.25;24.15;;;;;;;-5.06;78.22;96995.75;5063170;28;20044;-82
2024/01/22 07:01:10;;;;;;;75.90;25.95;;;;;;;-5.54;78.03;96924.94;5064802;28;20047;-82
2024/01/22 07:03:36;;;;;;;72.60;24.05;;;;;;;-5.55;77.85;96944.81;5069835;28;20141;-82
2024/01/22 07:06:03;;;;;;;72.20;24.92;;;;;;;-5.65;77.67;96925.06;5089440;28;20078;-82
2024/01/22 07:08:28;;;;;;;74.95;24.65;;;;;;;-5.97;77.37;96837.41;5070962;28;20051;-83
2024/01/22 07:10:54;;;;;;;78.70;25.35;;;;;;;-5.89;77.21;96896.97;5087369;28;20035;-81
2024/01/22 07:13:19;;;;;;;83.05;24.23;;;;;;;-4.91;77.73;97010.88;5054664;28;20048;-83
2024/01/22 07:15:45;;;;;;;70.18;25.70;;;;;;;-5.04;77.42;97005.97;5051266;28;20048;-82
2024/01/22 07:18:11;;;;;;;66.53;22.38;;;;;;;-5.19;77.08;96958.94;5043241;28;20656;-83
2024/01/22 07:20:36;;;;;;;69.55;23.55;;;;;;;-5.02;77.45;96983.34;5053298;28;20044;-82
2024/01/22 07:23:02;;;;;;;69.80;23.75;;;;;;;-5.24;77.11;96934.41;5052782;28;20040;-82
2024/01/22 07:25:27;;;;;;;57.95;21.42;;;;;;;-5.31;77.20;96910.03;5073676;28;20044;-84
2024/01/22 07:27:53;;;;;;;68.78;21.85;;;;;;;-4.82;77.14;96961.72;5067182;28;20048;-86
2024/01/22 07:30:18;;;;;;;62.08;20.75;;;;;;;-4.92;75.67;96949.72;5068522;28;20052;-83
2024/01/22 07:32:44;;;;;;;56.97;21.35;;;;;;;-5.03;74.53;96960.22;5087312;28;20036;-81
2024/01/22 07:35:13;;;;;;;53.20;21.05;;;;;;;-5.24;74.40;96929.25;5068407;28;20663;-83
2024/01/22 07:37:44;;;;;;;65.22;23.00;;;;;;;-4.78;74.37;96993.31;5065900;28;20048;-83
2024/01/22 07:40:13;;;;;;;61.72;22.70;;;;;;;-5.43;75.06;96948.13;5087622;28;20040;-82
2024/01/22 07:42:41;;;;;;;65.32;20.95;;;;;;;-5.10;75.12;97001.28;5066047;28;20067;-82
2024/01/22 07:45:08;;;;;;;70.68;23.42;;;;;;;-4.91;74.89;96990.19;5070907;28;20142;-82
2024/01/22 07:47:34;;;;;;;74.30;23.48;;;;;;;-5.57;75.43;96920.06;5065330;28;20098;-83
2024/01/22 07:50:00;;;;;;;76.60;25.73;;;;;;;-5.64;75.58;96873.22;5073729;28;20530;-83
2024/01/22 07:52:26;;;;;;;77.18;27.58;;;;;;;-5.72;76.77;96861.94;5081788;28;20088;-82
2024/01/22 07:54:52;;;;;;;89.15;28.92;;;;;;;-5.07;76.39;96926.00;5083844;28;20055;-82
2024/01/22 07:57:17;;;;;;;92.13;32.97;;;;;;;-4.81;76.03;96937.50;5079962;28;20531;-84
2024/01/22 07:59:49;;;;;;;117.80;34.83;;;;;;;-4.47;76.69;96994.03;5088242;28;20035;-83
2024/01/22 08:02:15;;;;;;;119.38;35.70;;;;;;;-4.87;76.24;96909.53;5066508;28;20051;-82
2024/01/22 08:04:40;;;;;;;99.93;33.58;;;;;;;-6.08;76.28;96705.75;5068105;28;20032;-83
2024/01/22 08:07:06;;;;;;;98.43;32.05;;;;;;;-4.42;75.00;96987.47;5084552;28;20043;-82
2024/01/22 08:09:36;;;;;;;101.88;32.38;;;;;;;-5.02;74.36;96900.53;5078079;28;20074;-85
2024/01/22 08:12:04;;;;;;;98.68;32.60;;;;;;;-4.46;75.71;96980.13;5074013;28;20044;-82
2024/01/22 08:14:31;;;;;;;99.20;34.25;;;;;;;-4.63;75.17;96947.16;5074508;28;20047;-83
2024/01/22 08:16:57;;;;;;;107.93;35.42;;;;;;;-5.06;76.53;96855.22;5091664;28;20671;-83
2024/01/22 08:19:22;;;;;;;108.50;32.60;;;;;;;-4.61;75.64;96883.94;5075722;28;20056;-83
2024/01/22 08:21:49;;;;;;;91.03;32.00;;;;;;;-4.58;75.80;96881.06;5094111;28;20153;-83
2024/01/22 08:24:14;;;;;;;109.75;31.60;;;;;;;-3.89;75.43;96954.13;5078333;28;20044;-83
2024/01/22 08:26:40;;;;;;;105.20;34.63;;;;;;;-3.96;75.43;96960.84;5080116;28;20640;-83
2024/01/22 08:29:07;;;;;;;88.75;28.52;;;;;;;-3.79;75.14;96956.69;5061826;28;20044;-83
2024/01/22 08:31:32;;;;;;;89.55;29.33;;;;;;;-4.56;74.33;96853.25;5087845;28;20135;-83
2024/01/22 08:33:58;;;;;;;87.65;30.20;;;;;;;-4.88;74.22;96772.53;5063471;28;20101;-83
2024/01/22 08:36:23;;;;;;;99.45;31.88;;;;;;;-5.53;73.90;96719.78;5066821;28;20165;-84
2024/01/22 08:38:49;;;;;;;90.38;31.63;;;;;;;-4.81;74.92;96859.03;5066866;28;20048;-83
2024/01/22 08:41:14;;;;;;;102.15;30.48;;;;;;;-4.95;74.78;96833.53;5072749;28;20044;-84
2024/01/22 08:43:43;;;;;;;105.75;32.90;;;;;;;-4.36;74.75;96935.16;5098528;28;20480;-83
2024/01/22 08:46:08;;;;;;;116.00;33.78;;;;;;;-4.77;75.10;96829.31;5078545;28;20036;-83
2024/01/22 08:48:34;;;;;;;110.80;33.47;;;;;;;-4.39;73.56;96893.16;5094604;28;20056;-83
2024/01/22 08:51:00;;;;;;;104.55;33.55;;;;;;;-4.21;73.40;96920.00;5072185;28;20048;-83
2024/01/22 08:53:28;;;;;;;93.47;30.77;;;;;;;-3.85;73.57;96959.88;5068814;28;20076;-84
2024/01/22 08:56:03;;;;;;;94.72;31.15;;;;;;;-3.83;73.82;96968.31;5075406;28;20044;-84
2024/01/22 08:58:40;;;;;;;113.35;33.80;;;;;;;-3.89;74.16;96930.00;5146182;22;20063;-83
2024/01/22 09:01:06;;;;;;;108.97;33.05;;;;;;;-4.39;73.71;96849.94;5067606;28;20054;-83
2024/01/22 09:03:35;;;;;;;104.65;36.42;;;;;;;-4.33;73.84;96902.97;5070420;28;20484;-83
2024/01/22 09:06:01;;;;;;;103.82;33.83;;;;;;;-4.64;74.19;96893.72;5067342;28;20036;-85
2024/01/22 09:08:27;;;;;;;100.35;34.10;;;;;;;-4.83;74.99;96884.22;5066637;28;20066;-83
2024/01/22 09:10:53;;;;;;;108.65;35.20;;;;;;;-5.97;74.60;96721.16;5080890;28;20079;-83
2024/01/22 09:13:18;;;;;;;100.30;32.75;;;;;;;-5.80;74.13;96709.31;5064409;28;20078;-83
2024/01/22 09:15:45;;;;;;;109.82;34.25;;;;;;;-4.37;74.02;96870.53;5064249;28;20048;-84
2024/01/22 09:18:10;;;;;;;95.53;33.13;;;;;;;-4.32;72.79;96847.63;5071123;28;20047;-84
2024/01/22 09:20:36;;;;;;;112.25;34.70;;;;;;;-4.09;73.14;96851.50;5064712;28;20047;-83
2024/01/22 09:23:01;;;;;;;121.60;36.03;;;;;;;-3.34;73.12;96951.59;5082831;28;20035;-83
2024/01/22 09:25:27;;;;;;;107.85;34.63;;;;;;;-4.06;72.64;96834.84;5065305;28;20152;-83
2024/01/22 09:27:52;;;;;;;107.85;34.85;;;;;;;-4.52;72.93;96800.25;5068169;28;20056;-82
2024/01/22 09:30:19;;;;;;;91.18;32.33;;;;;;;-4.25;73.02;96833.13;5081978;28;20047;-82
2024/01/22 09:32:44;;;;;;;99.03;32.90;;;;;;;-3.74;73.46;96927.78;5070686;28;20437;-82
2024/01/22 09:35:10;;;;;;;100.65;33.03;;;;;;;-3.94;73.88;96911.47;5063109;28;20056;-83
2024/01/22 09:37:35;;;;;;;103.65;36.03;;;;;;;-3.57;73.71;96945.16;5067869;28;20047;-84
2024/01/22 09:40:01;;;;;;;106.68;33.83;;;;;;;-3.94;73.57;96895.91;5057145;28;20055;-82
2024/01/22 09:42:27;;;;;;;107.07;31.75;;;;;;;-3.71;73.66;96940.44;5047100;28;20067;-83
2024/01/22 09:44:53;;;;;;;110.53;36.10;;;;;;;-3.60;72.78;96954.06;5060132;28;20153;-85
2024/01/22 09:47:20;;;;;;;120.95;37.78;;;;;;;-4.38;74.30;96823.09;5075867;28;20048;-81
2024/01/22 09:49:49;;;;;;;109.13;34.42;;;;;;;-3.61;74.83;96930.84;5067901;28;20040;-82
2024/01/22 09:52:16;;;;;;;112.03;35.90;;;;;;;-3.39;73.66;96903.72;5068046;28;20045;-83
2024/01/22 09:54:43;;;;;;;115.25;36.08;;;;;;;-3.14;72.86;96908.22;5057805;28;20598;-82
2024/01/22 09:57:16;;;;;;;112.80;35.95;;;;;;;-3.08;71.90;96925.81;5049340;28;20056;-83
2024/01/22 09:59:43;;;;;;;113.18;37.60;;;;;;;-3.92;71.05;96736.72;5044543;28;20060;-83
2024/01/22 10:02:14;;;;;;;107.80;33.05;;;;;;;-2.41;70.85;96935.69;5056862;28;20486;-83
2024/01/22 10:04:40;;;;;;;108.60;35.50;;;;;;;-2.38;70.14;96904.22;5050844;28;20054;-83
2024/01/22 10:07:07;;;;;;;93.95;32.63;;;;;;;-2.82;70.56;96796.06;5049543;28;20043;-82
2024/01/22 10:09:33;;;;;;;99.45;35.33;;;;;;;-1.98;68.94;96921.03;5060484;28;20515;-83
2024/01/22 10:11:58;;;;;;;111.82;36.53;;;;;;;-1.95;68.83;96931.94;5044646;28;20040;-83
2024/01/22 10:14:31;;;;;;;110.90;36.80;;;;;;;-2.20;67.65;96857.38;5048043;28;20044;-83
2024/01/22 10:17:03;;;;;;;112.88;37.58;;;;;;;-1.73;66.96;96915.00;5056931;28;20072;-84
2024/01/22 10:19:28;;;;;;;109.20;37.88;;;;;;;-2.39;66.57;96835.00;5053947;28;20588;-82
2024/01/22 10:22:00;;;;;;;110.55;37.50;;;;;;;-1.67;67.15;96908.38;5071783;28;20044;-82
2024/01/22 10:24:26;;;;;;;120.53;42.42;;;;;;;-2.12;67.06;96899.00;5057404;28;20484;-82
2024/01/22 10:26:52;;;;;;;110.65;38.38;;;;;;;-1.61;67.43;96869.56;5076835;28;20046;-82
2024/01/22 10:29:19;;;;;;;113.25;38.00;;;;;;;-0.99;67.34;96814.56;5060693;28;20036;-84
2024/01/22 10:31:59;;;;;;;116.50;40.67;;;;;;;0.14;65.43;96852.72;5074145;28;20476;-84
2024/01/22 10:34:42;;;;;;;115.35;41.33;;;;;;;0.95;61.29;96910.63;5081501;28;20060;-81
2024/01/22 10:37:12;;;;;;;117.13;40.70;;;;;;;1.74;59.48;96896.41;5078326;28;20050;-83
2024/01/22 10:39:42;;;;;;;112.97;41.47;;;;;;;1.75;56.68;96858.78;5078247;28;20077;-83
2024/01/22 10:42:10;;;;;;;110.95;40.80;;;;;;;2.79;56.46;96886.63;5061846;28;20044;-82
2024/01/22 10:44:37;;;;;;;98.63;39.05;;;;;;;2.88;55.00;96800.84;5062278;28;20101;-82
2024/01/22 10:47:04;;;;;;;105.25;40.05;;;;;;;3.79;52.70;96871.72;5063563;28;20043;-82
2024/01/22 10:49:31;;;;;;;103.18;41.38;;;;;;;3.69;51.71;96849.41;5065250;28;20094;-82
2024/01/22 10:52:00;;;;;;;102.47;38.65;;;;;;;3.88;51.90;96812.03;5049149;28;20040;-84
2024/01/22 10:54:30;;;;;;;95.00;37.10;;;;;;;4.78;51.01;96872.31;5066941;28;20036;-82
2024/01/22 10:57:05;;;;;;;104.82;39.83;;;;;;;4.35;49.89;96753.47;5073330;28;20054;-82
2024/01/22 10:59:36;;;;;;;100.13;38.22;;;;;;;5.20;49.09;96863.34;5062373;28;20591;-83
2024/01/22 11:02:15;;;;;;;95.47;37.83;;;;;;;5.30;47.57;96850.66;5061948;28;20045;-82
2024/01/22 11:04:46;;;;;;;91.78;36.30;;;;;;;5.38;47.09;96833.84;5054610;28;20102;-82
2024/01/22 11:07:12;;;;;;;84.53;34.20;;;;;;;5.32;46.63;96859.16;5086901;28;20113;-82
2024/01/22 11:09:41;;;;;;;88.50;36.40;;;;;;;1.91;47.53;96342.41;5101175;22;20070;-80